sensor_id;sensor_type;location;lat;lon;timestamp;pressure;altitude;pressure_sealevel;temperature;humidity
36834;BME280;48003;52.084;5.224;2022-12-10T00:01:16;100925.0;;;3.07;78.2
36834;BME280;48003;52.084;5.224;2022-12-10T00:02:54;100930.0;;;2.36;80.47
36834;BME280;48003;52.084;5.224;2022-12-10T00:04:30;100930.0;;;2.56;80.94
36834;BME280;48003;52.084;5.224;2022-12-10T00:06:08;100927.0;;;2.98;78.87
36834;BME280;48003;52.084;5.224;2022-12-10T00:09:23;100926.0;;;3.05;78.66
36834;BME280;48003;52.084;5.224;2022-12-10T00:11:02;100923.0;;;2.54;80.47
36834;BME280;48003;52.084;5.224;2022-12-10T00:12:40;100925.0;;;2.57;80.72
36834;BME280;48003;52.084;5.224;2022-12-10T00:15:53;100920.0;;;2.69;80.44
36834;BME280;48003;52.084;5.224;2022-12-10T00:17:29;100923.0;;;2.89;79.31
36834;BME280;48003;52.084;5.224;2022-12-10T00:19:06;100924.0;;;2.72;80.24
36834;BME280;48003;52.084;5.224;2022-12-10T00:20:43;100923.0;;;3.09;78.8
36834;BME280;48003;52.084;5.224;2022-12-10T00:23:56;100925.0;;;2.69;80.13
36834;BME280;48003;52.084;5.224;2022-12-10T00:25:33;100923.0;;;2.46;80.64
36834;BME280;48003;52.084;5.224;2022-12-10T00:27:10;100923.0;;;2.61;80.08
36834;BME280;48003;52.084;5.224;2022-12-10T00:30:25;100917.0;;;2.82;79.87
36834;BME280;48003;52.084;5.224;2022-12-10T00:32:05;100919.0;;;2.78;80.08
36834;BME280;48003;52.084;5.224;2022-12-10T00:33:43;100920.0;;;2.44;80.38
36834;BME280;48003;52.084;5.224;2022-12-10T00:35:20;100925.0;;;2.78;79.27
36834;BME280;48003;52.084;5.224;2022-12-10T00:38:33;100927.0;;;2.42;80.64
36834;BME280;48003;52.084;5.224;2022-12-10T00:40:11;100928.0;;;2.89;78.77
36834;BME280;48003;52.084;5.224;2022-12-10T00:41:48;100930.0;;;2.0;82.0
36834;BME280;48003;52.084;5.224;2022-12-10T00:45:01;100931.0;;;2.44;81.24
36834;BME280;48003;52.084;5.224;2022-12-10T00:51:27;100936.0;;;2.34;81.23
36834;BME280;48003;52.084;5.224;2022-12-10T00:54:40;100934.0;;;2.86;79.31
36834;BME280;48003;52.084;5.224;2022-12-10T01:01:09;100945.0;;;3.01;78.45
36834;BME280;48003;52.084;5.224;2022-12-10T01:06:07;100942.0;;;2.5;79.69
36834;BME280;48003;52.084;5.224;2022-12-10T01:07:44;100942.0;;;2.83;79.48
36834;BME280;48003;52.084;5.224;2022-12-10T01:09:22;100944.0;;;2.56;79.97
36834;BME280;48003;52.084;5.224;2022-12-10T01:11:01;100942.0;;;2.31;80.23
36834;BME280;48003;52.084;5.224;2022-12-10T01:14:17;100949.0;;;2.37;80.33
36834;BME280;48003;52.084;5.224;2022-12-10T01:15:53;100947.0;;;2.52;79.72
36834;BME280;48003;52.084;5.224;2022-12-10T01:17:30;100952.0;;;2.35;80.7
36834;BME280;48003;52.084;5.224;2022-12-10T01:20:43;100957.0;;;2.15;80.97
36834;BME280;48003;52.084;5.224;2022-12-10T01:22:19;100958.0;;;2.32;81.02
36834;BME280;48003;52.084;5.224;2022-12-10T01:23:57;100955.0;;;2.52;80.19
36834;BME280;48003;52.084;5.224;2022-12-10T01:25:33;100952.0;;;2.17;80.44
36834;BME280;48003;52.084;5.224;2022-12-10T01:28:46;100951.0;;;2.0;82.07
36834;BME280;48003;52.084;5.224;2022-12-10T01:30:23;100952.0;;;2.21;81.75
36834;BME280;48003;52.084;5.224;2022-12-10T01:31:59;100951.0;;;2.07;81.92
36834;BME280;48003;52.084;5.224;2022-12-10T01:35:13;100953.0;;;2.38;80.98
36834;BME280;48003;52.084;5.224;2022-12-10T01:36:50;100960.0;;;2.1;82.22
36834;BME280;48003;52.084;5.224;2022-12-10T01:38:28;100966.0;;;1.97;81.89
36834;BME280;48003;52.084;5.224;2022-12-10T01:41:43;100964.0;;;2.4;81.37
36834;BME280;48003;52.084;5.224;2022-12-10T01:43:21;100969.0;;;2.82;79.2
36834;BME280;48003;52.084;5.224;2022-12-10T01:45:04;100968.0;;;2.44;81.06
36834;BME280;48003;52.084;5.224;2022-12-10T01:46:43;100968.0;;;2.56;80.02
36834;BME280;48003;52.084;5.224;2022-12-10T01:49:59;100970.0;;;2.44;81.58
36834;BME280;48003;52.084;5.224;2022-12-10T01:51:37;100975.0;;;1.8;83.37
36834;BME280;48003;52.084;5.224;2022-12-10T01:53:15;100968.0;;;2.7;80.55
36834;BME280;48003;52.084;5.224;2022-12-10T01:54:52;100976.0;;;2.87;79.84
36834;BME280;48003;52.084;5.224;2022-12-10T01:58:07;100978.0;;;2.6;80.02
36834;BME280;48003;52.084;5.224;2022-12-10T01:59:47;100975.0;;;2.56;81.3
36834;BME280;48003;52.084;5.224;2022-12-10T02:01:28;100980.0;;;2.71;80.86
36834;BME280;48003;52.084;5.224;2022-12-10T02:03:17;100980.0;;;2.97;79.63
36834;BME280;48003;52.084;5.224;2022-12-10T02:06:56;100975.0;;;2.95;79.03
36834;BME280;48003;52.084;5.224;2022-12-10T02:08:39;100977.0;;;2.83;79.52
36834;BME280;48003;52.084;5.224;2022-12-10T02:10:30;100978.0;;;2.9;79.91
36834;BME280;48003;52.084;5.224;2022-12-10T02:12:16;100980.0;;;2.54;80.41
36834;BME280;48003;52.084;5.224;2022-12-10T02:14:00;100978.0;;;2.98;79.5
36834;BME280;48003;52.084;5.224;2022-12-10T02:15:42;100982.0;;;2.83;79.88
36834;BME280;48003;52.084;5.224;2022-12-10T02:19:15;100975.0;;;2.83;79.69
36834;BME280;48003;52.084;5.224;2022-12-10T02:21:01;100983.0;;;2.8;79.41
36834;BME280;48003;52.084;5.224;2022-12-10T02:22:44;100980.0;;;2.82;79.12
36834;BME280;48003;52.084;5.224;2022-12-10T02:24:26;100978.0;;;2.54;79.48
36834;BME280;48003;52.084;5.224;2022-12-10T02:27:56;100980.0;;;2.19;81.36
36834;BME280;48003;52.084;5.224;2022-12-10T02:29:36;100973.0;;;2.67;79.94
36834;BME280;48003;52.084;5.224;2022-12-10T02:31:17;100973.0;;;2.87;78.73
36834;BME280;48003;52.084;5.224;2022-12-10T02:32:56;100977.0;;;2.36;80.95
36834;BME280;48003;52.084;5.224;2022-12-10T02:34:37;100983.0;;;2.02;82.49
36834;BME280;48003;52.084;5.224;2022-12-10T02:38:02;100980.0;;;2.56;81.08
36834;BME280;48003;52.084;5.224;2022-12-10T02:39:51;100985.0;;;2.36;81.44
36834;BME280;48003;52.084;5.224;2022-12-10T02:41:34;100980.0;;;2.84;79.69
36834;BME280;48003;52.084;5.224;2022-12-10T02:43:12;100982.0;;;3.0;79.08
36834;BME280;48003;52.084;5.224;2022-12-10T02:46:29;100987.0;;;2.87;79.11
36834;BME280;48003;52.084;5.224;2022-12-10T02:48:09;100989.0;;;2.27;82.14
36834;BME280;48003;52.084;5.224;2022-12-10T02:49:47;100986.0;;;1.99;82.36
36834;BME280;48003;52.084;5.224;2022-12-10T02:51:25;100985.0;;;2.36;82.36
36834;BME280;48003;52.084;5.224;2022-12-10T02:54:41;100981.0;;;2.5;81.62
36834;BME280;48003;52.084;5.224;2022-12-10T02:56:22;100983.0;;;2.8;80.16
36834;BME280;48003;52.084;5.224;2022-12-10T02:58:10;100977.0;;;2.62;80.69
36834;BME280;48003;52.084;5.224;2022-12-10T03:00:04;100978.0;;;2.94;79.66
36834;BME280;48003;52.084;5.224;2022-12-10T03:01:49;100976.0;;;2.95;79.41
36834;BME280;48003;52.084;5.224;2022-12-10T03:05:22;100980.0;;;2.68;80.33
36834;BME280;48003;52.084;5.224;2022-12-10T03:07:08;100976.0;;;2.62;80.75
36834;BME280;48003;52.084;5.224;2022-12-10T03:08:49;100976.0;;;2.85;80.11
36834;BME280;48003;52.084;5.224;2022-12-10T03:10:31;100978.0;;;2.87;80.22
36834;BME280;48003;52.084;5.224;2022-12-10T03:12:17;100973.0;;;3.12;79.25
36834;BME280;48003;52.084;5.224;2022-12-10T03:15:40;100980.0;;;2.93;79.8
36834;BME280;48003;52.084;5.224;2022-12-10T03:17:19;100974.0;;;2.5;80.86
36834;BME280;48003;52.084;5.224;2022-12-10T03:18:58;100975.0;;;2.97;79.62
36834;BME280;48003;52.084;5.224;2022-12-10T03:20:39;100981.0;;;2.52;80.84
36834;BME280;48003;52.084;5.224;2022-12-10T03:23:56;100974.0;;;2.89;80.06
36834;BME280;48003;52.084;5.224;2022-12-10T03:25:33;100970.0;;;2.69;80.86
36834;BME280;48003;52.084;5.224;2022-12-10T03:27:12;100972.0;;;2.56;80.33
36834;BME280;48003;52.084;5.224;2022-12-10T03:30:36;100973.0;;;2.27;82.07
36834;BME280;48003;52.084;5.224;2022-12-10T03:32:16;100975.0;;;2.98;79.67
36834;BME280;48003;52.084;5.224;2022-12-10T03:33:55;100969.0;;;2.95;79.97
36834;BME280;48003;52.084;5.224;2022-12-10T03:35:32;100974.0;;;2.77;80.0
36834;BME280;48003;52.084;5.224;2022-12-10T03:38:47;100974.0;;;2.83;80.41
36834;BME280;48003;52.084;5.224;2022-12-10T03:40:24;100972.0;;;2.94;80.36
36834;BME280;48003;52.084;5.224;2022-12-10T03:42:01;100973.0;;;2.7;80.62
36834;BME280;48003;52.084;5.224;2022-12-10T03:43:49;100966.0;;;2.95;80.2
36834;BME280;48003;52.084;5.224;2022-12-10T03:47:04;100963.0;;;2.38;82.45
36834;BME280;48003;52.084;5.224;2022-12-10T03:48:42;100963.0;;;2.91;80.86
36834;BME280;48003;52.084;5.224;2022-12-10T03:50:18;100969.0;;;3.12;79.89
36834;BME280;48003;52.084;5.224;2022-12-10T03:51:55;100970.0;;;2.91;80.62
36834;BME280;48003;52.084;5.224;2022-12-10T03:55:08;100970.0;;;2.46;81.58
36834;BME280;48003;52.084;5.224;2022-12-10T03:56:44;100968.0;;;2.64;82.41
36834;BME280;48003;52.084;5.224;2022-12-10T03:58:20;100966.0;;;3.0;80.45
36834;BME280;48003;52.084;5.224;2022-12-10T04:01:32;100967.0;;;3.09;80.36
36834;BME280;48003;52.084;5.224;2022-12-10T04:03:08;100968.0;;;2.85;81.05
36834;BME280;48003;52.084;5.224;2022-12-10T04:04:44;100969.0;;;2.99;80.53
36834;BME280;48003;52.084;5.224;2022-12-10T04:07:57;100968.0;;;3.1;80.37
36834;BME280;48003;52.084;5.224;2022-12-10T04:09:33;100974.0;;;2.73;81.31
36834;BME280;48003;52.084;5.224;2022-12-10T04:11:11;100974.0;;;2.74;81.05
36834;BME280;48003;52.084;5.224;2022-12-10T04:16:27;100977.0;;;2.35;83.15
36834;BME280;48003;52.084;5.224;2022-12-10T04:18:05;100975.0;;;1.86;85.81
36834;BME280;48003;52.084;5.224;2022-12-10T04:19:42;100966.0;;;2.61;83.47
36834;BME280;48003;52.084;5.224;2022-12-10T04:26:53;100971.0;;;2.87;82.03
36834;BME280;48003;52.084;5.224;2022-12-10T04:29:08;100967.0;;;2.72;83.01
36834;BME280;48003;52.084;5.224;2022-12-10T04:30:46;100967.0;;;2.56;83.49
36834;BME280;48003;52.084;5.224;2022-12-10T04:32:24;100972.0;;;2.15;85.02
36834;BME280;48003;52.084;5.224;2022-12-10T04:34:00;100973.0;;;2.32;84.68
36834;BME280;48003;52.084;5.224;2022-12-10T04:37:13;100972.0;;;2.7;83.68
36834;BME280;48003;52.084;5.224;2022-12-10T04:38:50;100973.0;;;3.0;82.19
36834;BME280;48003;52.084;5.224;2022-12-10T04:40:26;100973.0;;;2.75;82.96
36834;BME280;48003;52.084;5.224;2022-12-10T04:45:15;100980.0;;;2.38;83.53
36834;BME280;48003;52.084;5.224;2022-12-10T04:46:52;100975.0;;;2.14;83.56
36834;BME280;48003;52.084;5.224;2022-12-10T04:48:28;100984.0;;;1.79;85.64
36834;BME280;48003;52.084;5.224;2022-12-10T04:51:41;100990.0;;;1.72;85.29
36834;BME280;48003;52.084;5.224;2022-12-10T04:53:18;100985.0;;;2.25;83.98
36834;BME280;48003;52.084;5.224;2022-12-10T04:54:54;100985.0;;;2.54;82.7
36834;BME280;48003;52.084;5.224;2022-12-10T04:58:08;100988.0;;;2.58;82.55
36834;BME280;48003;52.084;5.224;2022-12-10T04:59:44;100986.0;;;2.21;83.34
36834;BME280;48003;52.084;5.224;2022-12-10T05:01:20;100986.0;;;2.33;83.64
36834;BME280;48003;52.084;5.224;2022-12-10T05:04:33;100989.0;;;2.04;83.58
36834;BME280;48003;52.084;5.224;2022-12-10T05:06:12;100990.0;;;2.19;83.58
36834;BME280;48003;52.084;5.224;2022-12-10T05:07:50;100985.0;;;2.25;83.37
36834;BME280;48003;52.084;5.224;2022-12-10T05:09:26;100993.0;;;1.68;84.98
36834;BME280;48003;52.084;5.224;2022-12-10T05:12:42;100985.0;;;2.25;84.18
36834;BME280;48003;52.084;5.224;2022-12-10T05:14:19;100983.0;;;2.66;82.04
36834;BME280;48003;52.084;5.224;2022-12-10T05:15:55;100983.0;;;2.66;82.06
36834;BME280;48003;52.084;5.224;2022-12-10T05:19:10;100980.0;;;2.75;81.36
36834;BME280;48003;52.084;5.224;2022-12-10T05:20:46;100981.0;;;2.54;82.51
36834;BME280;48003;52.084;5.224;2022-12-10T05:23:29;100987.0;;;2.21;83.44
36834;BME280;48003;52.084;5.224;2022-12-10T05:25:20;100989.0;;;2.62;82.33
36834;BME280;48003;52.084;5.224;2022-12-10T05:26:57;100986.0;;;2.52;82.93
36834;BME280;48003;52.084;5.224;2022-12-10T05:28:36;100983.0;;;2.52;83.0
36834;BME280;48003;52.084;5.224;2022-12-10T05:30:12;100983.0;;;2.7;82.07
36834;BME280;48003;52.084;5.224;2022-12-10T05:33:26;100982.0;;;2.77;81.72
36834;BME280;48003;52.084;5.224;2022-12-10T05:35:04;100986.0;;;2.73;81.66
36834;BME280;48003;52.084;5.224;2022-12-10T05:36:41;100989.0;;;2.31;83.32
36834;BME280;48003;52.084;5.224;2022-12-10T05:39:53;100994.0;;;2.48;82.52
36834;BME280;48003;52.084;5.224;2022-12-10T05:41:33;100993.0;;;2.25;83.78
36834;BME280;48003;52.084;5.224;2022-12-10T05:43:09;100996.0;;;1.87;84.68
36834;BME280;48003;52.084;5.224;2022-12-10T05:46:25;100995.0;;;1.69;85.88
36834;BME280;48003;52.084;5.224;2022-12-10T05:48:04;100998.0;;;2.27;83.84
36834;BME280;48003;52.084;5.224;2022-12-10T05:49:41;100998.0;;;2.08;83.92
36834;BME280;48003;52.084;5.224;2022-12-10T05:51:20;101007.0;;;2.02;84.51
36834;BME280;48003;52.084;5.224;2022-12-10T05:54:33;101005.0;;;2.09;83.6
36834;BME280;48003;52.084;5.224;2022-12-10T05:56:11;100998.0;;;2.39;83.29
36834;BME280;48003;52.084;5.224;2022-12-10T05:57:48;100998.0;;;2.39;83.11
36834;BME280;48003;52.084;5.224;2022-12-10T06:01:05;101003.0;;;2.17;83.52
36834;BME280;48003;52.084;5.224;2022-12-10T06:02:43;101001.0;;;1.95;85.0
36834;BME280;48003;52.084;5.224;2022-12-10T06:04:20;101005.0;;;1.93;85.55
36834;BME280;48003;52.084;5.224;2022-12-10T06:05:56;101005.0;;;2.21;84.29
36834;BME280;48003;52.084;5.224;2022-12-10T06:09:11;101009.0;;;1.9;85.2
36834;BME280;48003;52.084;5.224;2022-12-10T06:10:49;101010.0;;;1.78;86.19
36834;BME280;48003;52.084;5.224;2022-12-10T06:12:25;101006.0;;;1.92;84.94
36834;BME280;48003;52.084;5.224;2022-12-10T06:15:39;101008.0;;;1.38;86.78
36834;BME280;48003;52.084;5.224;2022-12-10T06:17:17;101006.0;;;1.89;86.45
36834;BME280;48003;52.084;5.224;2022-12-10T06:18:53;101006.0;;;1.95;86.06
36834;BME280;48003;52.084;5.224;2022-12-10T06:20:30;101010.0;;;1.65;86.57
36834;BME280;48003;52.084;5.224;2022-12-10T06:23:44;101007.0;;;1.73;86.41
36834;BME280;48003;52.084;5.224;2022-12-10T06:25:21;101009.0;;;2.02;85.54
36834;BME280;48003;52.084;5.224;2022-12-10T06:26:57;101009.0;;;1.75;87.1
36834;BME280;48003;52.084;5.224;2022-12-10T06:30:11;101010.0;;;1.84;86.4
36834;BME280;48003;52.084;5.224;2022-12-10T06:31:48;101011.0;;;1.66;87.09
36834;BME280;48003;52.084;5.224;2022-12-10T06:33:24;101012.0;;;2.4;84.73
36834;BME280;48003;52.084;5.224;2022-12-10T06:36:36;101018.0;;;2.36;84.2
36834;BME280;48003;52.084;5.224;2022-12-10T06:38:13;101021.0;;;2.21;85.25
36834;BME280;48003;52.084;5.224;2022-12-10T06:39:50;101025.0;;;1.77;85.86
36834;BME280;48003;52.084;5.224;2022-12-10T06:41:26;101022.0;;;2.15;85.67
36834;BME280;48003;52.084;5.224;2022-12-10T06:44:39;101021.0;;;2.12;85.52
36834;BME280;48003;52.084;5.224;2022-12-10T06:46:17;101019.0;;;1.71;86.44
36834;BME280;48003;52.084;5.224;2022-12-10T06:47:54;101021.0;;;2.21;85.3
36834;BME280;48003;52.084;5.224;2022-12-10T06:51:06;101020.0;;;2.11;85.65
36834;BME280;48003;52.084;5.224;2022-12-10T06:52:43;101023.0;;;1.79;85.72
36834;BME280;48003;52.084;5.224;2022-12-10T06:54:19;101021.0;;;1.89;86.3
36834;BME280;48003;52.084;5.224;2022-12-10T06:57:34;101021.0;;;2.11;85.67
36834;BME280;48003;52.084;5.224;2022-12-10T06:59:10;101033.0;;;1.91;85.32
36834;BME280;48003;52.084;5.224;2022-12-10T07:00:46;101031.0;;;2.31;84.65
36834;BME280;48003;52.084;5.224;2022-12-10T07:02:22;101039.0;;;2.04;83.89
36834;BME280;48003;52.084;5.224;2022-12-10T07:05:34;101046.0;;;1.9;85.99
36834;BME280;48003;52.084;5.224;2022-12-10T07:07:10;101048.0;;;1.76;86.08
36834;BME280;48003;52.084;5.224;2022-12-10T07:08:46;101045.0;;;1.62;86.23
36834;BME280;48003;52.084;5.224;2022-12-10T07:11:59;101049.0;;;2.29;84.28
36834;BME280;48003;52.084;5.224;2022-12-10T07:13:37;101051.0;;;2.34;83.33
36834;BME280;48003;52.084;5.224;2022-12-10T07:15:13;101051.0;;;1.82;85.48
36834;BME280;48003;52.084;5.224;2022-12-10T07:18:27;101047.0;;;2.09;84.56
36834;BME280;48003;52.084;5.224;2022-12-10T07:20:05;101052.0;;;2.19;83.49
36834;BME280;48003;52.084;5.224;2022-12-10T07:21:42;101055.0;;;1.79;84.59
36834;BME280;48003;52.084;5.224;2022-12-10T07:23:20;101059.0;;;1.93;85.11
36834;BME280;48003;52.084;5.224;2022-12-10T07:26:34;101063.0;;;1.61;85.49
36834;BME280;48003;52.084;5.224;2022-12-10T07:28:12;101067.0;;;2.05;84.5
36834;BME280;48003;52.084;5.224;2022-12-10T07:29:49;101066.0;;;2.23;83.78
36834;BME280;48003;52.084;5.224;2022-12-10T07:33:03;101067.0;;;2.31;83.08
36834;BME280;48003;52.084;5.224;2022-12-10T07:34:40;101073.0;;;2.12;83.41
36834;BME280;48003;52.084;5.224;2022-12-10T07:36:16;101077.0;;;1.94;84.5
36834;BME280;48003;52.084;5.224;2022-12-10T07:37:53;101068.0;;;2.08;83.33
36834;BME280;48003;52.084;5.224;2022-12-10T07:41:07;101069.0;;;2.07;83.37
36834;BME280;48003;52.084;5.224;2022-12-10T07:42:44;101070.0;;;1.75;84.62
36834;BME280;48003;52.084;5.224;2022-12-10T07:44:23;101073.0;;;2.13;83.82
36834;BME280;48003;52.084;5.224;2022-12-10T07:47:40;101074.0;;;1.84;84.59
36834;BME280;48003;52.084;5.224;2022-12-10T07:49:17;101073.0;;;1.87;84.73
36834;BME280;48003;52.084;5.224;2022-12-10T07:52:32;101077.0;;;2.04;83.89
36834;BME280;48003;52.084;5.224;2022-12-10T07:55:44;101078.0;;;2.31;83.71
36834;BME280;48003;52.084;5.224;2022-12-10T07:57:21;101074.0;;;2.44;82.86
36834;BME280;48003;52.084;5.224;2022-12-10T07:58:57;101080.0;;;2.23;82.79
36834;BME280;48003;52.084;5.224;2022-12-10T08:02:09;101083.0;;;1.81;83.93
36834;BME280;48003;52.084;5.224;2022-12-10T08:03:45;101077.0;;;1.7;84.48
36834;BME280;48003;52.084;5.224;2022-12-10T08:05:21;101081.0;;;1.74;84.5
36834;BME280;48003;52.084;5.224;2022-12-10T08:08:34;101080.0;;;1.4;86.2
36834;BME280;48003;52.084;5.224;2022-12-10T08:10:10;101075.0;;;1.5;85.73
36834;BME280;48003;52.084;5.224;2022-12-10T08:11:46;101074.0;;;1.55;86.41
36834;BME280;48003;52.084;5.224;2022-12-10T08:14:59;101077.0;;;1.51;85.49
36834;BME280;48003;52.084;5.224;2022-12-10T08:16:35;101077.0;;;1.34;85.76
36834;BME280;48003;52.084;5.224;2022-12-10T08:18:11;101080.0;;;1.49;85.61
36834;BME280;48003;52.084;5.224;2022-12-10T08:19:47;101078.0;;;1.34;86.06
36834;BME280;48003;52.084;5.224;2022-12-10T08:23:03;101078.0;;;1.13;87.41
36834;BME280;48003;52.084;5.224;2022-12-10T08:24:40;101090.0;;;0.97;88.07
36834;BME280;48003;52.084;5.224;2022-12-10T08:26:18;101086.0;;;1.2;87.68
36834;BME280;48003;52.084;5.224;2022-12-10T08:29:34;101097.0;;;1.11;87.53
36834;BME280;48003;52.084;5.224;2022-12-10T08:31:11;101095.0;;;1.4;87.58
36834;BME280;48003;52.084;5.224;2022-12-10T08:32:48;101093.0;;;1.3;87.11
36834;BME280;48003;52.084;5.224;2022-12-10T08:34:24;101091.0;;;1.58;86.65
36834;BME280;48003;52.084;5.224;2022-12-10T08:37:40;101105.0;;;1.02;87.29
36834;BME280;48003;52.084;5.224;2022-12-10T08:39:16;101105.0;;;1.1;87.95
36834;BME280;48003;52.084;5.224;2022-12-10T08:42:30;101106.0;;;1.84;85.49
36834;BME280;48003;52.084;5.224;2022-12-10T08:44:06;101114.0;;;1.93;84.08
36834;BME280;48003;52.084;5.224;2022-12-10T08:45:42;101113.0;;;1.95;83.93
36834;BME280;48003;52.084;5.224;2022-12-10T08:47:18;101118.0;;;1.34;86.14
36834;BME280;48003;52.084;5.224;2022-12-10T08:50:31;101117.0;;;1.92;84.66
36834;BME280;48003;52.084;5.224;2022-12-10T08:52:07;101122.0;;;1.97;84.02
36834;BME280;48003;52.084;5.224;2022-12-10T08:53:44;101124.0;;;1.69;84.06
36834;BME280;48003;52.084;5.224;2022-12-10T08:55:20;101126.0;;;1.53;85.23
36834;BME280;48003;52.084;5.224;2022-12-10T08:58:33;101131.0;;;1.5;85.35
36834;BME280;48003;52.084;5.224;2022-12-10T09:00:10;101135.0;;;1.29;85.8
36834;BME280;48003;52.084;5.224;2022-12-10T09:01:47;101140.0;;;1.03;86.83
36834;BME280;48003;52.084;5.224;2022-12-10T09:05:01;101137.0;;;1.27;86.66
36834;BME280;48003;52.084;5.224;2022-12-10T09:06:37;101145.0;;;0.94;87.84
36834;BME280;48003;52.084;5.224;2022-12-10T09:08:13;101137.0;;;1.67;85.58
36834;BME280;48003;52.084;5.224;2022-12-10T09:11:28;101142.0;;;1.25;86.17
36834;BME280;48003;52.084;5.224;2022-12-10T09:13:05;101139.0;;;1.57;85.81
36834;BME280;48003;52.084;5.224;2022-12-10T09:14:42;101152.0;;;1.12;86.82
36834;BME280;48003;52.084;5.224;2022-12-10T09:16:19;101149.0;;;1.02;87.02
36834;BME280;48003;52.084;5.224;2022-12-10T09:19:32;101152.0;;;1.11;87.61
36834;BME280;48003;52.084;5.224;2022-12-10T09:21:10;101157.0;;;0.96;87.69
36834;BME280;48003;52.084;5.224;2022-12-10T09:22:50;101155.0;;;1.24;87.26
36834;BME280;48003;52.084;5.224;2022-12-10T09:26:05;101155.0;;;1.48;87.0
36834;BME280;48003;52.084;5.224;2022-12-10T09:27:43;101156.0;;;1.26;86.84
36834;BME280;48003;52.084;5.224;2022-12-10T09:29:20;101162.0;;;1.06;87.95
36834;BME280;48003;52.084;5.224;2022-12-10T09:30:57;101168.0;;;0.72;88.29
36834;BME280;48003;52.084;5.224;2022-12-10T09:34:10;101169.0;;;0.89;88.54
36834;BME280;48003;52.084;5.224;2022-12-10T09:35:46;101168.0;;;0.85;88.06
36834;BME280;48003;52.084;5.224;2022-12-10T09:37:22;101170.0;;;1.06;88.05
36834;BME280;48003;52.084;5.224;2022-12-10T09:40:39;101168.0;;;1.1;87.68
36834;BME280;48003;52.084;5.224;2022-12-10T09:42:24;101173.0;;;1.14;87.33
36834;BME280;48003;52.084;5.224;2022-12-10T09:44:11;101180.0;;;0.98;87.91
36834;BME280;48003;52.084;5.224;2022-12-10T09:46:00;101175.0;;;1.2;87.49
36834;BME280;48003;52.084;5.224;2022-12-10T09:47:46;101175.0;;;1.02;87.32
36834;BME280;48003;52.084;5.224;2022-12-10T09:51:22;101176.0;;;1.12;87.8
36834;BME280;48003;52.084;5.224;2022-12-10T09:53:00;101180.0;;;1.18;87.43
36834;BME280;48003;52.084;5.224;2022-12-10T09:54:40;101170.0;;;1.55;86.45
36834;BME280;48003;52.084;5.224;2022-12-10T09:56:22;101164.0;;;1.55;85.15
36834;BME280;48003;52.084;5.224;2022-12-10T09:59:40;101175.0;;;1.41;85.74
36834;BME280;48003;52.084;5.224;2022-12-10T10:01:19;101166.0;;;1.81;84.78
36834;BME280;48003;52.084;5.224;2022-12-10T10:03:01;101168.0;;;1.63;84.83
36834;BME280;48003;52.084;5.224;2022-12-10T10:04:38;101170.0;;;1.6;84.45
36834;BME280;48003;52.084;5.224;2022-12-10T10:07:54;101174.0;;;1.93;83.97
36834;BME280;48003;52.084;5.224;2022-12-10T10:09:35;101173.0;;;1.99;83.71
36834;BME280;48003;52.084;5.224;2022-12-10T10:11:18;101174.0;;;2.33;82.33
36834;BME280;48003;52.084;5.224;2022-12-10T10:13:00;101184.0;;;2.46;81.45
36834;BME280;48003;52.084;5.224;2022-12-10T10:16:20;101178.0;;;1.91;82.05
36834;BME280;48003;52.084;5.224;2022-12-10T10:18:02;101184.0;;;1.59;84.21
36834;BME280;48003;52.084;5.224;2022-12-10T10:19:42;101177.0;;;1.88;83.32
36834;BME280;48003;52.084;5.224;2022-12-10T10:21:22;101174.0;;;1.68;83.44
36834;BME280;48003;52.084;5.224;2022-12-10T10:24:39;101182.0;;;1.33;84.93
36834;BME280;48003;52.084;5.224;2022-12-10T10:26:16;101183.0;;;1.27;86.19
36834;BME280;48003;52.084;5.224;2022-12-10T10:27:53;101189.0;;;0.98;86.38
36834;BME280;48003;52.084;5.224;2022-12-10T10:29:29;101190.0;;;1.02;87.22
36834;BME280;48003;52.084;5.224;2022-12-10T10:32:55;101192.0;;;0.82;87.99
36834;BME280;48003;52.084;5.224;2022-12-10T10:34:33;101187.0;;;1.46;86.67
36834;BME280;48003;52.084;5.224;2022-12-10T10:36:09;101181.0;;;1.81;85.04
36834;BME280;48003;52.084;5.224;2022-12-10T10:37:46;101184.0;;;1.58;84.62
36834;BME280;48003;52.084;5.224;2022-12-10T10:41:04;101192.0;;;1.23;86.31
36834;BME280;48003;52.084;5.224;2022-12-10T10:42:42;101181.0;;;1.26;86.01
36834;BME280;48003;52.084;5.224;2022-12-10T10:44:23;101180.0;;;1.5;85.33
36834;BME280;48003;52.084;5.224;2022-12-10T10:47:42;101184.0;;;1.42;85.06
36834;BME280;48003;52.084;5.224;2022-12-10T10:49:22;101182.0;;;1.56;84.63
36834;BME280;48003;52.084;5.224;2022-12-10T10:51:06;101187.0;;;1.46;85.7
36834;BME280;48003;52.084;5.224;2022-12-10T10:52:44;101189.0;;;1.44;86.23
36834;BME280;48003;52.084;5.224;2022-12-10T10:56:19;101181.0;;;1.29;85.99
36834;BME280;48003;52.084;5.224;2022-12-10T10:57:56;101187.0;;;1.04;87.04
36834;BME280;48003;52.084;5.224;2022-12-10T10:59:34;101183.0;;;1.35;86.84
36834;BME280;48003;52.084;5.224;2022-12-10T11:01:11;101184.0;;;1.56;85.7
36834;BME280;48003;52.084;5.224;2022-12-10T11:04:29;101185.0;;;1.78;85.01
36834;BME280;48003;52.084;5.224;2022-12-10T11:06:07;101183.0;;;1.63;85.12
36834;BME280;48003;52.084;5.224;2022-12-10T11:07:43;101181.0;;;1.81;84.91
36834;BME280;48003;52.084;5.224;2022-12-10T11:09:21;101177.0;;;1.89;84.67
36834;BME280;48003;52.084;5.224;2022-12-10T11:12:44;101182.0;;;1.83;84.7
36834;BME280;48003;52.084;5.224;2022-12-10T11:14:30;101182.0;;;1.67;85.18
36834;BME280;48003;52.084;5.224;2022-12-10T11:16:15;101181.0;;;2.15;83.64
36834;BME280;48003;52.084;5.224;2022-12-10T11:17:54;101187.0;;;1.67;85.27
36834;BME280;48003;52.084;5.224;2022-12-10T11:21:17;101180.0;;;1.86;84.13
36834;BME280;48003;52.084;5.224;2022-12-10T11:22:55;101189.0;;;1.48;85.43
36834;BME280;48003;52.084;5.224;2022-12-10T11:24:32;101190.0;;;1.38;86.72
36834;BME280;48003;52.084;5.224;2022-12-10T11:26:18;101186.0;;;1.36;86.33
36834;BME280;48003;52.084;5.224;2022-12-10T11:28:07;101177.0;;;1.72;85.97
36834;BME280;48003;52.084;5.224;2022-12-10T11:31:49;101174.0;;;1.59;85.32
36834;BME280;48003;52.084;5.224;2022-12-10T11:33:36;101167.0;;;1.92;84.55
36834;BME280;48003;52.084;5.224;2022-12-10T11:35:26;101162.0;;;1.7;84.44
36834;BME280;48003;52.084;5.224;2022-12-10T11:37:24;101158.0;;;1.65;85.32